createdAt,value
2022-08-11T00:04:54.706Z,9.10
2022-08-11T00:09:56.541Z,7.35
2022-08-11T00:14:59.395Z,9.38
2022-08-11T00:20:14.530Z,7.93
2022-08-11T00:25:19.386Z,8.30
2022-08-11T00:30:21.049Z,8.52
2022-08-11T00:35:54.979Z,7.78
2022-08-11T00:40:58.001Z,7.57
2022-08-11T00:46:11.223Z,8.30
2022-08-11T00:52:04.327Z,9.52
2022-08-11T01:02:11.084Z,7.90
2022-08-11T01:07:12.516Z,7.65
2022-08-11T01:12:20.182Z,8.20
2022-08-11T01:17:37.023Z,9.25
2022-08-11T01:23:07.383Z,8.45
2022-08-11T01:28:21.221Z,8.70
2022-08-11T01:33:41.553Z,7.13
2022-08-11T01:39:05.522Z,6.75
2022-08-11T01:44:28.753Z,7.38
2022-08-11T01:50:08.403Z,7.22
2022-08-11T01:55:09.383Z,7.85
2022-08-11T02:00:19.605Z,8.32
2022-08-11T02:05:24.115Z,8.20
2022-08-11T02:10:50.660Z,9.70
2022-08-11T02:15:56.877Z,9.20
2022-08-11T02:21:21.178Z,7.70
2022-08-11T02:26:24.481Z,10.20
2022-08-11T02:32:11.025Z,7.90
2022-08-11T02:42:32.799Z,7.93
2022-08-11T02:48:14.795Z,8.02
2022-08-11T02:53:22.396Z,8.10
2022-08-11T02:58:42.635Z,8.32
2022-08-11T03:03:44.029Z,8.75
2022-08-11T03:08:52.643Z,10.75
2022-08-11T03:14:25.911Z,11.57
2022-08-11T03:19:44.949Z,10.88
2022-08-11T03:24:46.560Z,11.40
2022-08-11T03:30:01.595Z,11.68
2022-08-11T03:35:03.540Z,9.95
2022-08-11T03:40:05.098Z,10.40
2022-08-11T03:45:06.886Z,11.63
2022-08-11T03:50:11.293Z,12.70
2022-08-11T03:55:15.727Z,12.55
2022-08-11T04:00:49.374Z,13.68
2022-08-11T04:05:51.170Z,11.75
2022-08-11T04:11:17.913Z,10.60
2022-08-11T04:16:34.634Z,9.43
2022-08-11T04:21:39.290Z,10.43
2022-08-11T04:26:53.249Z,10.73
2022-08-11T04:31:54.681Z,10.68
2022-08-11T04:37:17.677Z,10.88
2022-08-11T04:42:50.263Z,11.90
2022-08-11T04:48:16.596Z,11.63
2022-08-11T04:53:43.075Z,11.85
2022-08-11T04:59:21.910Z,16.20
2022-08-11T05:05:00.637Z,16.48
2022-08-11T05:10:10.962Z,13.05
2022-08-11T05:15:32.385Z,15.90
2022-08-11T05:21:09.426Z,13.88
2022-08-11T05:26:46.314Z,11.10
2022-08-11T05:32:14.457Z,10.07
2022-08-11T05:37:32.976Z,8.95
2022-08-11T05:42:56.090Z,10.07
2022-08-11T05:48:17.007Z,11.63
2022-08-11T05:53:45.859Z,9.45
2022-08-11T05:58:50.940Z,12.05
2022-08-11T06:04:12.282Z,10.35
2022-08-11T06:09:14.543Z,10.70
2022-08-11T06:14:16.268Z,11.18
2022-08-11T06:19:21.240Z,11.93
2022-08-11T06:24:23.213Z,13.02
2022-08-11T06:29:37.513Z,12.10
2022-08-11T06:34:46.712Z,12.50
2022-08-11T06:40:00.474Z,11.52
2022-08-11T06:45:08.930Z,14.10
2022-08-11T06:50:29.254Z,12.73
2022-08-11T06:55:58.015Z,10.68
2022-08-11T07:01:01.506Z,10.95
2022-08-11T07:06:08.004Z,9.35
2022-08-11T07:11:47.149Z,11.23
2022-08-11T07:16:49.848Z,12.10
2022-08-11T07:22:10.466Z,9.32
2022-08-11T07:27:35.762Z,10.02
2022-08-11T07:32:48.337Z,9.25
2022-08-11T07:38:01.372Z,11.45
2022-08-11T07:43:04.523Z,9.80
2022-08-11T07:48:25.403Z,10.75
2022-08-11T07:53:27.461Z,8.98
2022-08-11T07:58:53.285Z,8.27
2022-08-11T08:04:13.820Z,8.40
2022-08-11T08:09:35.183Z,7.70
2022-08-11T08:14:56.606Z,8.77
2022-08-11T08:19:58.109Z,8.18
2022-08-11T08:24:59.826Z,8.35
2022-08-11T08:30:21.129Z,7.18
2022-08-11T08:35:22.879Z,8.32
2022-08-11T08:40:24.501Z,8.27
2022-08-11T08:45:27.340Z,7.55
2022-08-11T08:50:50.432Z,9.60
2022-08-11T08:55:55.059Z,9.00
2022-08-11T09:00:57.135Z,8.68
2022-08-11T09:05:58.992Z,7.55
2022-08-11T09:11:20.255Z,8.15
2022-08-11T09:16:22.764Z,8.57
2022-08-11T09:21:24.442Z,8.35
2022-08-11T09:27:02.950Z,9.18
2022-08-11T09:32:07.186Z,7.50
2022-08-11T09:37:54.045Z,6.82
2022-08-11T09:43:09.529Z,7.93
2022-08-11T09:48:11.423Z,8.55
2022-08-11T09:53:36.456Z,8.50
2022-08-11T09:58:42.417Z,9.05
2022-08-11T10:08:47.171Z,7.70
2022-08-11T10:14:31.583Z,6.40
2022-08-11T10:19:31.924Z,7.25
2022-08-11T10:24:52.704Z,6.97
2022-08-11T10:30:13.278Z,7.30
2022-08-11T10:35:15.943Z,6.97
2022-08-11T10:40:21.191Z,6.03
2022-08-11T10:45:42.958Z,6.93
2022-08-11T10:51:04.685Z,6.80
2022-08-11T10:56:25.569Z,8.32
2022-08-11T11:01:32.910Z,6.97
2022-08-11T11:06:59.571Z,9.13
2022-08-11T11:12:22.549Z,8.73
2022-08-11T11:17:45.918Z,7.07
2022-08-11T11:22:52.649Z,6.63
2022-08-11T11:28:10.303Z,9.00
2022-08-11T11:33:17.605Z,5.95
2022-08-11T11:38:19.213Z,5.47
2022-08-11T11:43:20.963Z,5.70
2022-08-11T11:48:22.564Z,7.40
2022-08-11T11:53:24.369Z,7.50
2022-08-11T11:58:45.445Z,5.03
2022-08-11T12:03:49.346Z,6.45
2022-08-11T12:08:52.326Z,6.47
2022-08-11T12:13:54.139Z,7.20
2022-08-11T12:18:57.029Z,7.50
2022-08-11T12:24:18.790Z,5.75
2022-08-11T12:29:21.303Z,6.95
2022-08-11T12:34:24.738Z,6.65
2022-08-11T12:40:16.462Z,6.50
2022-08-11T12:45:28.134Z,6.20
2022-08-11T12:50:48.222Z,6.25
2022-08-11T12:56:09.302Z,7.10
2022-08-11T13:01:29.545Z,10.55
2022-08-11T13:06:31.369Z,6.93
2022-08-11T13:11:56.801Z,6.47
2022-08-11T13:17:44.058Z,6.78
2022-08-11T13:22:47.320Z,5.50
2022-08-11T13:38:18.410Z,5.72
2022-08-11T13:43:20.507Z,10.65
2022-08-11T13:48:24.274Z,6.47
2022-08-11T13:53:26.572Z,5.75
2022-08-11T13:58:40.153Z,7.80
2022-08-11T14:04:30.333Z,9.43
2022-08-11T14:09:07.530Z,7.88
2022-08-11T14:14:10.800Z,5.32
2022-08-11T14:19:13.676Z,7.00
2022-08-11T14:24:16.426Z,7.45
2022-08-11T14:34:23.571Z,6.97
2022-08-11T14:39:27.364Z,6.50
2022-08-11T14:44:48.985Z,6.50
2022-08-11T14:49:58.287Z,5.63
2022-08-11T14:55:32.646Z,7.00
2022-08-11T15:00:34.697Z,9.10
2022-08-11T15:05:56.119Z,6.38
2022-08-11T15:10:59.590Z,7.75
2022-08-11T15:16:19.826Z,7.53
2022-08-11T15:21:39.850Z,6.47
2022-08-11T15:27:00.868Z,7.85
2022-08-11T15:32:21.176Z,7.78
2022-08-11T15:37:30.937Z,6.97
2022-08-11T15:42:52.132Z,8.00
2022-08-11T15:48:05.304Z,7.13
2022-08-11T15:53:18.858Z,6.18
2022-08-11T15:58:40.172Z,6.43
2022-08-11T16:04:13.341Z,6.10
2022-08-11T16:09:18.215Z,7.47
2022-08-11T16:14:41.065Z,7.88
2022-08-11T16:19:42.884Z,7.20
2022-08-11T16:26:30.516Z,5.75
2022-08-11T16:30:08.163Z,5.75
2022-08-11T16:35:29.442Z,6.10
2022-08-11T16:40:31.466Z,6.63
2022-08-11T16:45:52.472Z,7.85
2022-08-11T16:50:54.552Z,7.53
2022-08-11T16:55:56.802Z,7.78
2022-08-11T17:00:58.964Z,6.50
2022-08-11T17:06:19.742Z,6.10
2022-08-11T17:11:41.641Z,9.63
2022-08-11T17:16:45.671Z,7.25
2022-08-11T17:22:06.813Z,6.60
2022-08-11T17:27:08.868Z,7.57
2022-08-11T17:32:31.150Z,7.65
2022-08-11T17:37:53.610Z,6.78
2022-08-11T17:43:14.991Z,7.00
2022-08-11T17:48:25.789Z,8.88
2022-08-11T17:54:17.307Z,7.60
2022-08-11T17:59:32.227Z,10.13
2022-08-11T18:04:34.294Z,6.72
2022-08-11T18:09:54.824Z,8.07
2022-08-11T18:15:15.172Z,8.07
2022-08-11T18:20:37.821Z,7.72
2022-08-11T18:25:59.325Z,5.97
2022-08-11T18:31:21.339Z,7.18
2022-08-11T18:36:43.048Z,6.10
2022-08-11T18:42:03.646Z,8.32
2022-08-11T18:47:28.891Z,7.03
2022-08-11T18:52:51.356Z,6.03
2022-08-11T18:58:12.013Z,8.85
2022-08-11T19:03:48.609Z,7.60
2022-08-11T19:09:15.214Z,7.13
2022-08-11T19:14:35.899Z,6.32
2022-08-11T19:19:56.328Z,9.55
2022-08-11T19:25:20.925Z,7.50
2022-08-11T19:30:46.058Z,6.70
2022-08-11T19:36:06.719Z,6.80
2022-08-11T19:41:52.159Z,7.13
2022-08-11T19:47:09.679Z,7.85
2022-08-11T19:52:29.882Z,7.13
2022-08-11T19:57:51.100Z,6.15
2022-08-11T20:03:11.340Z,7.63
2022-08-11T20:08:31.944Z,7.22
2022-08-11T20:13:52.853Z,7.03
2022-08-11T20:19:13.558Z,7.95
2022-08-11T20:24:33.738Z,6.78
2022-08-11T20:29:54.282Z,7.10
2022-08-11T20:35:16.411Z,6.70
2022-08-11T20:40:37.858Z,6.88
2022-08-11T20:45:57.674Z,7.30
2022-08-11T20:51:18.427Z,7.32
2022-08-11T20:56:39.358Z,8.38
2022-08-11T21:02:01.085Z,6.72
2022-08-11T21:07:23.814Z,6.35
2022-08-11T21:12:50.591Z,7.10
2022-08-11T21:18:11.873Z,6.72
2022-08-11T21:23:51.015Z,9.57
2022-08-11T21:29:12.679Z,7.03
2022-08-11T21:34:35.000Z,8.13
2022-08-11T21:39:54.960Z,5.53
2022-08-11T21:45:15.920Z,6.18
2022-08-11T21:50:36.514Z,8.25
2022-08-11T21:55:57.393Z,6.88
2022-08-11T22:01:18.135Z,8.88
2022-08-11T22:06:39.124Z,7.00
2022-08-11T22:12:30.170Z,7.43
2022-08-11T22:17:38.935Z,7.22
2022-08-11T22:22:59.916Z,6.30
2022-08-11T22:28:21.663Z,8.50
2022-08-11T22:34:02.134Z,8.63
2022-08-11T22:39:22.633Z,8.15
2022-08-11T22:44:43.059Z,8.88
2022-08-11T22:50:03.551Z,6.75
2022-08-11T22:55:23.854Z,7.30
2022-08-11T23:00:44.175Z,10.02
2022-08-11T23:06:04.053Z,8.30
2022-08-11T23:11:25.805Z,9.85
2022-08-11T23:17:06.137Z,7.40
2022-08-11T23:22:33.764Z,8.88
2022-08-11T23:28:06.783Z,8.27
2022-08-11T23:33:28.262Z,7.75
2022-08-11T23:38:48.336Z,7.55
2022-08-11T23:44:08.327Z,7.28
2022-08-11T23:49:28.663Z,7.80
2022-08-11T23:54:49.010Z,6.53
